createdAt,value
2022-10-21T00:00:06.790Z,1.02
2022-10-21T00:02:45.825Z,1.00
2022-10-21T00:05:23.938Z,1.02
2022-10-21T00:08:04.828Z,0.99
2022-10-21T00:10:40.341Z,1.00
2022-10-21T00:13:25.472Z,1.03
2022-10-21T00:16:21.913Z,1.13
2022-10-21T00:19:11.125Z,1.07
2022-10-21T00:21:54.618Z,1.08
2022-10-21T00:24:40.318Z,1.05
2022-10-21T00:27:17.128Z,0.99
2022-10-21T00:29:49.490Z,0.99
2022-10-21T00:32:26.333Z,0.95
2022-10-21T00:35:14.798Z,0.84
2022-10-21T00:37:58.877Z,0.84
2022-10-21T00:40:48.012Z,0.80
2022-10-21T00:43:34.683Z,0.78
2022-10-21T00:46:20.810Z,0.80
2022-10-21T00:49:28.143Z,0.73
2022-10-21T00:52:02.510Z,0.80
2022-10-21T00:54:44.966Z,0.88
2022-10-21T00:57:31.553Z,0.87
2022-10-21T01:00:18.756Z,0.79
2022-10-21T01:03:05.280Z,0.76
2022-10-21T01:08:32.163Z,0.68
2022-10-21T01:11:20.877Z,0.63
2022-10-21T01:14:20.242Z,0.60
2022-10-21T01:17:53.875Z,0.55
2022-10-21T01:20:57.913Z,0.46
2022-10-21T01:24:31.138Z,0.43
2022-10-21T01:27:42.038Z,0.51
2022-10-21T01:30:58.473Z,0.38
2022-10-21T01:33:57.663Z,0.34
2022-10-21T01:37:00.608Z,0.34
2022-10-21T01:39:55.196Z,0.24
2022-10-21T01:43:00.677Z,0.24
2022-10-21T01:45:51.263Z,0.30
2022-10-21T01:48:30.619Z,0.29
2022-10-21T01:51:17.499Z,0.30
2022-10-21T01:54:02.281Z,0.24
2022-10-21T01:56:45.663Z,0.25
2022-10-21T01:59:33.786Z,0.24
2022-10-21T02:02:15.954Z,0.20
2022-10-21T02:05:07.135Z,0.14
2022-10-21T02:07:41.795Z,0.10
2022-10-21T02:10:18.223Z,0.09
2022-10-21T02:12:59.671Z,0.07
2022-10-21T02:15:41.687Z,0.04
2022-10-21T02:18:31.664Z,-0.03
2022-10-21T02:21:31.740Z,-0.05
2022-10-21T02:24:31.209Z,-0.05
2022-10-21T02:27:14.584Z,-0.08
2022-10-21T02:29:58.842Z,-0.09
2022-10-21T02:32:42.824Z,-0.08
2022-10-21T02:35:45.122Z,-0.12
2022-10-21T02:38:47.171Z,-0.13
2022-10-21T02:41:33.234Z,-0.19
2022-10-21T02:44:11.958Z,-0.22
2022-10-21T02:46:57.254Z,-0.20
2022-10-21T02:49:42.919Z,-0.25
2022-10-21T02:52:29.620Z,-0.30
2022-10-21T02:55:13.242Z,-0.27
2022-10-21T02:58:02.163Z,-0.31
2022-10-21T03:00:40.479Z,-0.34
2022-10-21T03:03:33.098Z,-0.37
2022-10-21T03:06:24.627Z,-0.38
2022-10-21T03:09:22.589Z,-0.37
2022-10-21T03:12:05.581Z,-0.37
2022-10-21T03:14:40.856Z,-0.36
2022-10-21T03:17:21.611Z,-0.41
2022-10-21T03:20:13.177Z,-0.45
2022-10-21T03:22:49.040Z,-0.47
2022-10-21T03:25:35.280Z,-0.52
2022-10-21T03:28:19.134Z,-0.57
2022-10-21T03:30:58.726Z,-0.51
2022-10-21T03:33:42.749Z,-0.62
2022-10-21T03:36:24.139Z,-0.65
2022-10-21T03:39:07.125Z,-0.68
2022-10-21T03:41:38.347Z,-0.67
2022-10-21T03:44:16.455Z,-0.52
2022-10-21T03:46:59.792Z,-0.51
2022-10-21T03:49:48.234Z,-0.66
2022-10-21T03:52:35.120Z,-0.67
2022-10-21T03:55:16.717Z,-0.71
2022-10-21T03:57:57.538Z,-0.67
2022-10-21T04:00:43.878Z,-0.67
2022-10-21T04:03:36.262Z,-0.76
2022-10-21T04:06:17.532Z,-0.81
2022-10-21T04:08:56.210Z,-0.83
2022-10-21T04:11:23.288Z,-0.85
2022-10-21T04:14:05.177Z,-0.84
2022-10-21T04:17:06.539Z,-0.87
2022-10-21T04:19:43.016Z,-0.86
2022-10-21T04:22:34.149Z,-0.88
2022-10-21T04:25:10.095Z,-1.00
2022-10-21T04:27:56.885Z,-0.99
2022-10-21T04:30:42.718Z,-1.01
2022-10-21T04:33:22.101Z,-1.00
2022-10-21T04:36:01.122Z,-1.00
2022-10-21T04:38:37.808Z,-0.97
2022-10-21T04:41:17.967Z,-0.93
2022-10-21T04:44:01.542Z,-0.91
2022-10-21T04:46:47.537Z,-0.94
2022-10-21T04:49:28.998Z,-0.89
2022-10-21T04:52:18.131Z,-0.83
2022-10-21T04:55:01.867Z,-0.68
2022-10-21T04:57:50.802Z,-0.71
2022-10-21T05:00:24.222Z,-0.68
2022-10-21T05:02:59.845Z,-0.63
2022-10-21T05:05:40.386Z,-0.57
2022-10-21T05:08:19.400Z,-0.20
2022-10-21T05:11:03.357Z,-0.08
2022-10-21T05:13:48.755Z,-0.11
2022-10-21T05:16:32.317Z,-0.15
2022-10-21T05:19:16.766Z,-0.22
2022-10-21T05:21:57.545Z,-0.28
2022-10-21T05:24:36.165Z,-0.19
2022-10-21T05:27:10.694Z,-0.32
2022-10-21T05:29:51.173Z,-0.33
2022-10-21T05:32:42.596Z,-0.38
2022-10-21T05:35:17.364Z,-0.48
2022-10-21T05:38:01.389Z,-0.40
2022-10-21T05:40:47.765Z,-0.45
2022-10-21T05:43:25.389Z,-0.34
2022-10-21T05:46:12.524Z,-0.22
2022-10-21T05:48:45.143Z,-0.09
2022-10-21T05:51:29.590Z,0.09
2022-10-21T05:54:08.112Z,0.08
2022-10-21T05:56:53.987Z,0.13
2022-10-21T05:59:50.036Z,0.29
2022-10-21T06:02:32.063Z,0.41
2022-10-21T06:05:15.542Z,0.64
2022-10-21T06:07:58.567Z,1.07
2022-10-21T06:10:39.728Z,1.37
2022-10-21T06:13:20.492Z,1.55
2022-10-21T06:18:44.801Z,2.12
2022-10-21T06:21:22.796Z,2.34
2022-10-21T06:24:02.320Z,2.46
2022-10-21T06:26:40.390Z,2.63
2022-10-21T06:29:21.318Z,2.92
2022-10-21T06:32:04.434Z,3.01
2022-10-21T06:34:50.987Z,3.21
2022-10-21T06:37:45.042Z,3.47
2022-10-21T06:40:29.072Z,3.69
2022-10-21T06:43:01.291Z,3.81
2022-10-21T06:45:56.420Z,3.95
2022-10-21T06:48:40.517Z,4.13
2022-10-21T06:51:33.676Z,4.26
2022-10-21T06:54:28.031Z,4.41
2022-10-21T06:57:15.147Z,4.59
2022-10-21T06:59:53.356Z,4.69
2022-10-21T07:02:33.208Z,4.65
2022-10-21T07:05:14.057Z,4.72
2022-10-21T07:07:52.555Z,4.96
2022-10-21T07:10:37.973Z,5.14
2022-10-21T07:13:16.726Z,5.28
2022-10-21T07:16:05.848Z,5.42
2022-10-21T07:18:48.181Z,5.58
2022-10-21T07:21:26.782Z,5.69
2022-10-21T07:23:59.894Z,5.88
2022-10-21T07:26:36.792Z,5.92
2022-10-21T07:29:12.624Z,5.98
2022-10-21T07:31:56.539Z,6.20
2022-10-21T07:34:39.962Z,6.22
2022-10-21T07:37:26.068Z,6.38
2022-10-21T07:40:09.211Z,6.44
2022-10-21T07:42:50.295Z,6.56
2022-10-21T07:45:34.666Z,6.84
2022-10-21T07:48:19.173Z,6.71
2022-10-21T07:50:57.232Z,6.85
2022-10-21T07:53:32.835Z,6.82
2022-10-21T07:56:19.044Z,6.96
2022-10-21T07:59:10.209Z,6.97
2022-10-21T08:04:32.530Z,6.94
2022-10-21T08:07:03.050Z,7.05
2022-10-21T08:09:40.401Z,7.22
2022-10-21T08:12:23.894Z,7.50
2022-10-21T08:15:05.118Z,7.64
2022-10-21T08:17:49.671Z,7.80
2022-10-21T08:20:26.942Z,7.87
2022-10-21T08:23:17.576Z,7.95
2022-10-21T08:26:02.715Z,8.11
2022-10-21T08:28:45.008Z,8.24
2022-10-21T08:31:34.348Z,8.25
2022-10-21T08:34:22.367Z,8.42
2022-10-21T08:37:00.460Z,8.51
2022-10-21T08:39:33.287Z,8.54
2022-10-21T08:42:13.978Z,8.74
2022-10-21T08:44:55.855Z,8.79
2022-10-21T08:48:11.715Z,8.95
2022-10-21T08:50:46.212Z,9.19
2022-10-21T08:53:30.186Z,9.34
2022-10-21T08:56:17.140Z,9.43
2022-10-21T08:58:57.259Z,9.46
2022-10-21T09:01:49.452Z,9.51
2022-10-21T09:04:36.894Z,9.72
2022-10-21T09:07:30.600Z,9.96
2022-10-21T09:10:13.082Z,10.08
2022-10-21T09:13:17.524Z,10.25
2022-10-21T09:16:01.804Z,10.25
2022-10-21T09:18:42.366Z,10.45
2022-10-21T09:21:47.662Z,10.76
2022-10-21T09:24:31.157Z,10.85
2022-10-21T09:27:10.096Z,10.93
2022-10-21T09:29:53.367Z,10.68
2022-10-21T09:32:33.596Z,10.46
2022-10-21T09:35:16.217Z,10.56
2022-10-21T09:37:57.663Z,10.40
2022-10-21T09:40:34.126Z,10.50
2022-10-21T09:43:21.076Z,10.45
2022-10-21T09:45:58.302Z,10.60
2022-10-21T09:49:36.684Z,10.63
2022-10-21T09:52:05.593Z,10.74
2022-10-21T09:54:52.918Z,10.67
2022-10-21T09:57:38.160Z,10.72
2022-10-21T10:00:28.202Z,10.73
2022-10-21T10:03:06.697Z,10.65
2022-10-21T10:05:48.073Z,10.69
2022-10-21T10:08:52.876Z,10.85
2022-10-21T10:11:25.991Z,10.94
2022-10-21T10:14:26.266Z,10.97
2022-10-21T10:16:58.784Z,11.07
2022-10-21T10:19:47.481Z,11.19
2022-10-21T10:22:28.644Z,11.23
2022-10-21T10:25:31.837Z,11.28
2022-10-21T10:28:31.051Z,11.30
2022-10-21T10:31:17.884Z,11.33
2022-10-21T10:33:58.916Z,11.25
2022-10-21T10:36:51.310Z,11.22
2022-10-21T10:39:35.230Z,11.33
2022-10-21T10:42:18.682Z,11.19
2022-10-21T10:45:34.946Z,11.33
2022-10-21T10:48:21.835Z,11.51
2022-10-21T10:50:58.158Z,11.39
2022-10-21T10:53:45.645Z,11.62
2022-10-21T10:56:30.432Z,11.83
2022-10-21T10:59:30.506Z,11.95
2022-10-21T11:02:12.343Z,11.96
2022-10-21T11:05:08.626Z,12.13
2022-10-21T11:07:49.290Z,11.91
2022-10-21T11:10:53.662Z,11.70
2022-10-21T11:13:38.807Z,11.77
2022-10-21T11:16:45.137Z,11.84
2022-10-21T11:19:45.452Z,11.87
2022-10-21T11:22:41.708Z,11.81
2022-10-21T11:25:30.221Z,11.99
2022-10-21T11:28:19.911Z,12.14
2022-10-21T11:31:17.859Z,12.24
2022-10-21T11:34:05.501Z,12.01
2022-10-21T11:37:10.588Z,12.05
2022-10-21T11:40:03.896Z,11.92
2022-10-21T11:42:53.066Z,11.86
2022-10-21T11:45:42.953Z,11.76
2022-10-21T11:48:29.131Z,11.62
2022-10-21T11:51:42.258Z,11.54
2022-10-21T11:54:56.588Z,11.60
2022-10-21T11:58:19.308Z,11.44
2022-10-21T12:01:24.083Z,11.53
2022-10-21T12:04:22.149Z,11.33
2022-10-21T12:07:43.853Z,11.51
2022-10-21T12:10:30.436Z,11.40
2022-10-21T12:13:31.533Z,11.47
2022-10-21T12:16:23.320Z,11.49
2022-10-21T12:19:12.313Z,11.50
2022-10-21T12:21:49.844Z,11.36
2022-10-21T12:24:53.100Z,11.45
2022-10-21T12:27:47.353Z,11.47
2022-10-21T12:30:44.594Z,11.60
2022-10-21T12:33:48.323Z,11.64
2022-10-21T12:36:44.676Z,11.58
2022-10-21T12:39:35.601Z,11.59
2022-10-21T12:42:15.468Z,11.61
2022-10-21T12:44:58.290Z,11.60
2022-10-21T12:47:47.785Z,11.67
2022-10-21T12:50:42.914Z,11.57
2022-10-21T12:54:28.064Z,11.51
2022-10-21T12:57:42.679Z,11.58
2022-10-21T13:00:30.628Z,11.69
2022-10-21T13:03:09.326Z,11.58
2022-10-21T13:05:58.888Z,11.52
2022-10-21T13:08:40.256Z,11.48
2022-10-21T13:11:12.734Z,11.38
2022-10-21T13:14:09.376Z,11.34
2022-10-21T13:16:44.488Z,11.47
2022-10-21T13:19:25.485Z,11.54
2022-10-21T13:22:06.497Z,11.57
2022-10-21T13:24:42.165Z,11.60
2022-10-21T13:27:30.933Z,11.57
2022-10-21T13:30:15.491Z,11.39
2022-10-21T13:33:05.029Z,11.50
2022-10-21T13:36:03.241Z,11.43
2022-10-21T13:38:52.698Z,11.31
2022-10-21T13:41:37.247Z,11.33
2022-10-21T13:44:37.418Z,11.30
2022-10-21T13:47:31.061Z,11.38
2022-10-21T13:50:27.833Z,11.28
2022-10-21T13:53:01.198Z,11.22
2022-10-21T13:55:39.574Z,11.31
2022-10-21T13:58:24.748Z,11.29
2022-10-21T14:01:25.576Z,11.30
2022-10-21T14:04:26.352Z,11.31
2022-10-21T14:07:16.495Z,11.37
2022-10-21T14:10:03.674Z,11.36
2022-10-21T14:12:47.527Z,11.44
2022-10-21T14:15:49.904Z,11.30
2022-10-21T14:18:47.485Z,11.34
2022-10-21T14:21:36.548Z,11.37
2022-10-21T14:24:41.146Z,11.33
2022-10-21T14:27:14.179Z,11.30
2022-10-21T14:30:01.594Z,11.27
2022-10-21T14:32:45.145Z,11.30
2022-10-21T14:35:31.924Z,11.39
2022-10-21T14:38:29.461Z,11.30
2022-10-21T14:41:07.867Z,11.25
2022-10-21T14:43:54.051Z,11.35
2022-10-21T14:46:34.013Z,11.35
2022-10-21T14:49:20.116Z,11.32
2022-10-21T14:52:20.819Z,11.34
2022-10-21T14:55:19.736Z,11.24
2022-10-21T14:58:23.264Z,11.24
2022-10-21T15:01:05.558Z,11.25
2022-10-21T15:04:05.277Z,11.16
2022-10-21T15:07:13.513Z,11.16
2022-10-21T15:10:08.594Z,11.18
2022-10-21T15:12:49.021Z,11.11
2022-10-21T15:15:40.647Z,11.16
2022-10-21T15:18:52.735Z,11.19
2022-10-21T15:21:59.806Z,11.15
2022-10-21T15:24:47.394Z,11.07
2022-10-21T15:27:37.058Z,11.11
2022-10-21T15:30:39.728Z,10.94
2022-10-21T15:33:27.396Z,10.95
2022-10-21T15:36:13.094Z,10.99
2022-10-21T15:38:49.407Z,10.91
2022-10-21T15:41:36.526Z,10.92
2022-10-21T15:44:30.382Z,10.82
2022-10-21T15:47:11.375Z,10.67
2022-10-21T15:49:57.636Z,10.55
2022-10-21T15:52:42.029Z,10.29
2022-10-21T15:55:26.720Z,10.33
2022-10-21T15:58:18.671Z,10.28
2022-10-21T16:01:06.990Z,10.32
2022-10-21T16:03:52.543Z,10.31
2022-10-21T16:06:30.858Z,10.32
2022-10-21T16:09:11.057Z,10.25
2022-10-21T16:12:01.574Z,10.27
2022-10-21T16:14:56.815Z,10.10
2022-10-21T16:17:30.276Z,10.19
2022-10-21T16:20:04.478Z,10.14
2022-10-21T16:22:38.833Z,10.17
2022-10-21T16:25:19.765Z,10.09
2022-10-21T16:28:04.997Z,9.89
2022-10-21T16:30:42.406Z,9.88
2022-10-21T16:33:17.824Z,9.90
2022-10-21T16:36:04.574Z,9.75
2022-10-21T16:38:47.938Z,9.57
2022-10-21T16:41:34.225Z,9.56
2022-10-21T16:44:16.011Z,9.41
2022-10-21T16:47:09.423Z,9.38
2022-10-21T16:49:55.776Z,9.18
2022-10-21T16:52:36.376Z,9.06
2022-10-21T16:55:15.814Z,8.95
2022-10-21T16:57:51.412Z,8.88
2022-10-21T17:00:29.748Z,8.85
2022-10-21T17:03:02.506Z,8.81
2022-10-21T17:05:48.104Z,8.73
2022-10-21T17:08:24.666Z,8.62
2022-10-21T17:11:08.021Z,8.65
2022-10-21T17:13:46.265Z,8.74
2022-10-21T17:16:30.096Z,8.55
2022-10-21T17:19:08.044Z,8.46
2022-10-21T17:21:50.697Z,8.40
2022-10-21T17:24:34.096Z,8.26
2022-10-21T17:27:14.657Z,8.25
2022-10-21T17:29:52.397Z,8.15
2022-10-21T17:32:30.231Z,8.08
2022-10-21T17:35:04.527Z,7.99
2022-10-21T17:37:46.025Z,7.96
2022-10-21T17:40:35.961Z,7.87
2022-10-21T17:43:09.124Z,7.91
2022-10-21T17:45:43.133Z,7.90
2022-10-21T17:48:31.236Z,7.87
2022-10-21T17:51:27.241Z,7.82
2022-10-21T17:54:08.718Z,7.82
2022-10-21T17:56:57.058Z,7.80
2022-10-21T17:59:40.260Z,7.78
2022-10-21T18:02:39.939Z,7.78
2022-10-21T18:05:27.115Z,7.85
2022-10-21T18:08:08.265Z,7.88
2022-10-21T18:11:15.313Z,7.90
2022-10-21T18:14:01.987Z,8.01
2022-10-21T18:16:44.179Z,8.01
2022-10-21T18:19:32.806Z,8.05
2022-10-21T18:22:19.373Z,8.13
2022-10-21T18:25:03.635Z,8.23
2022-10-21T18:27:35.462Z,8.17
2022-10-21T18:30:31.776Z,8.17
2022-10-21T18:33:21.174Z,8.30
2022-10-21T18:36:18.420Z,8.32
2022-10-21T18:39:02.126Z,8.40
2022-10-21T18:41:44.419Z,8.43
2022-10-21T18:44:24.364Z,8.41
2022-10-21T18:47:07.519Z,8.49
2022-10-21T18:49:46.208Z,8.52
2022-10-21T18:52:27.031Z,8.48
2022-10-21T18:55:07.741Z,8.43
2022-10-21T18:57:45.377Z,8.42
2022-10-21T19:00:28.881Z,8.43
2022-10-21T19:03:01.454Z,8.53
2022-10-21T19:05:42.171Z,8.58
2022-10-21T19:08:14.910Z,8.57
2022-10-21T19:11:00.472Z,8.56
2022-10-21T19:13:39.183Z,8.54
2022-10-21T19:16:14.333Z,8.58
2022-10-21T19:18:55.269Z,8.62
2022-10-21T19:21:36.387Z,8.57
2022-10-21T19:24:14.664Z,8.59
2022-10-21T19:27:12.669Z,8.54
2022-10-21T19:29:50.759Z,8.60
2022-10-21T19:32:31.397Z,8.53
2022-10-21T19:35:12.810Z,8.42
2022-10-21T19:38:07.823Z,8.61
2022-10-21T19:40:52.400Z,8.69
2022-10-21T19:43:27.922Z,8.73
2022-10-21T19:46:20.053Z,8.72
2022-10-21T19:48:59.057Z,8.73
2022-10-21T19:51:32.164Z,8.75
2022-10-21T19:54:16.775Z,8.79
2022-10-21T19:56:57.496Z,8.77
2022-10-21T19:59:40.009Z,8.84
2022-10-21T20:02:21.084Z,8.79
2022-10-21T20:04:59.098Z,8.89
2022-10-21T20:07:41.550Z,8.78
2022-10-21T20:10:21.164Z,8.97
2022-10-21T20:13:05.370Z,8.95
2022-10-21T20:15:40.599Z,8.74
2022-10-21T20:18:28.221Z,8.98
2022-10-21T20:21:05.676Z,8.91
2022-10-21T20:23:43.562Z,8.93
2022-10-21T20:26:18.665Z,9.06
2022-10-21T20:29:11.193Z,9.02
2022-10-21T20:31:40.426Z,8.96
2022-10-21T20:34:24.376Z,8.95
2022-10-21T20:36:56.765Z,9.04
2022-10-21T20:39:28.676Z,9.25
2022-10-21T20:42:06.768Z,9.10
2022-10-21T20:44:46.616Z,9.11
2022-10-21T20:47:26.431Z,9.07
2022-10-21T20:50:11.283Z,9.18
2022-10-21T20:52:48.319Z,9.16
2022-10-21T20:55:20.899Z,9.16
2022-10-21T20:57:58.455Z,9.16
2022-10-21T21:00:44.770Z,9.06
2022-10-21T21:03:29.321Z,9.11
2022-10-21T21:06:07.771Z,9.11
2022-10-21T21:08:53.339Z,9.09
2022-10-21T21:11:55.653Z,9.08
2022-10-21T21:14:36.299Z,9.23
2022-10-21T21:17:13.558Z,9.11
2022-10-21T21:19:43.148Z,9.12
2022-10-21T21:22:21.080Z,9.06
2022-10-21T21:24:58.087Z,9.04
2022-10-21T21:27:37.828Z,9.05
2022-10-21T21:30:18.379Z,9.05
2022-10-21T21:33:03.319Z,9.10
2022-10-21T21:35:41.106Z,9.07
2022-10-21T21:38:21.450Z,9.06
2022-10-21T21:40:53.691Z,9.08
2022-10-21T21:43:28.535Z,9.09
2022-10-21T21:46:08.867Z,9.05
2022-10-21T21:48:47.737Z,8.94
2022-10-21T21:51:25.039Z,8.88
2022-10-21T21:54:06.350Z,9.05
2022-10-21T21:56:45.315Z,9.04
2022-10-21T21:59:20.611Z,8.99
2022-10-21T22:02:03.451Z,8.96
2022-10-21T22:04:54.441Z,8.89
2022-10-21T22:07:30.437Z,8.95
2022-10-21T22:10:02.306Z,8.97
2022-10-21T22:12:40.496Z,8.99
2022-10-21T22:15:35.739Z,9.04
2022-10-21T22:18:17.960Z,8.90
2022-10-21T22:20:54.401Z,8.94
2022-10-21T22:23:37.591Z,8.90
2022-10-21T22:26:16.382Z,8.90
2022-10-21T22:28:54.313Z,8.88
2022-10-21T22:31:34.206Z,8.83
2022-10-21T22:34:23.328Z,8.88
2022-10-21T22:37:03.762Z,8.96
2022-10-21T22:39:47.695Z,8.84
2022-10-21T22:42:30.689Z,8.75
2022-10-21T22:45:03.552Z,8.76
2022-10-21T22:47:43.894Z,8.77
2022-10-21T22:50:26.121Z,8.73
2022-10-21T22:53:09.329Z,8.70
2022-10-21T22:55:57.884Z,8.75
2022-10-21T22:58:33.385Z,8.74
2022-10-21T23:01:15.047Z,8.65
2022-10-21T23:03:53.498Z,8.63
2022-10-21T23:06:28.321Z,8.58
2022-10-21T23:09:04.721Z,8.56
2022-10-21T23:11:46.531Z,8.44
2022-10-21T23:14:20.997Z,8.54
2022-10-21T23:16:53.273Z,8.56
2022-10-21T23:19:31.434Z,8.52
2022-10-21T23:22:04.241Z,8.54
2022-10-21T23:24:39.583Z,8.55
2022-10-21T23:27:23.064Z,8.52
2022-10-21T23:30:09.446Z,8.55
2022-10-21T23:32:52.124Z,8.52
2022-10-21T23:35:29.201Z,8.48
2022-10-21T23:38:01.489Z,8.46
2022-10-21T23:40:45.637Z,8.42
2022-10-21T23:43:28.532Z,8.45
2022-10-21T23:46:23.935Z,8.43
2022-10-21T23:48:58.786Z,8.40
2022-10-21T23:51:39.242Z,8.38
2022-10-21T23:54:13.971Z,8.47
2022-10-21T23:56:59.956Z,8.42
2022-10-21T23:59:48.510Z,8.36
